Time;durP1;ratioP1;P1;durP2;ratioP2;P2;SDS_P1;SDS_P2;PMS_P1;PMS_P2;Temp;Humidity;BMP_temperature;BMP_pressure;BME280_temperature;BME280_humidity;BME280_pressure;Samples;Min_cycle;Max_cycle;Signal;HPM_P1;HPM_P2
2021/02/11 00:09:01;;;;;;;65.8;36.9;;;;;;;-6.84;79.38086;98300.88;;;;
2021/02/11 00:18:58;;;;;;;65.2;41.1;;;;;;;-7.06;79.40332;98315.19;;;;
2021/02/11 00:28:55;;;;;;;65.3;40.5;;;;;;;-7.2;79.02051;98330.09;;;;
2021/02/11 00:38:52;;;;;;;50.2;32.1;;;;;;;-7.14;78.67578;98335.32;;;;
2021/02/11 00:48:49;;;;;;;52.6;28;;;;;;;-7.25;78.3418;98327.25;;;;
2021/02/11 00:58:46;;;;;;;56.3;31.3;;;;;;;-7.24;78.17969;98336.72;;;;
2021/02/11 01:08:43;;;;;;;51.8;30.9;;;;;;;-7.35;78.65723;98334.69;;;;
2021/02/11 01:18:40;;;;;;;53.8;24;;;;;;;-7.31;78.52539;98344.57;;;;
2021/02/11 01:28:37;;;;;;;53;28.8;;;;;;;-7.32;77.8623;98355.23;;;;
2021/02/11 01:38:34;;;;;;;57.1;30.1;;;;;;;-7.28;77.90332;98377.39;;;;
2021/02/11 01:48:30;;;;;;;46.9;28.3;;;;;;;-7.19;76.84863;98381.45;;;;
2021/02/11 01:58:27;;;;;;;53.8;31.3;;;;;;;-7.28;76.75684;98382.63;;;;
2021/02/11 02:08:24;;;;;;;54.4;27.2;;;;;;;-7.36;77.55469;98401.96;;;;
2021/02/11 02:18:21;;;;;;;51.5;31.3;;;;;;;-7.38;77.25781;98401.34;;;;
2021/02/11 02:28:18;;;;;;;48.1;27;;;;;;;-7.32;77.12695;98415.43;;;;
2021/02/11 02:38:15;;;;;;;46.7;27.2;;;;;;;-7.37;77.02148;98416.05;;;;
2021/02/11 02:48:11;;;;;;;48.4;32;;;;;;;-7.36;77.20801;98428.14;;;;
2021/02/11 02:58:08;;;;;;;52.6;27.4;;;;;;;-7.51;76.66016;98434.52;;;;
2021/02/11 03:08:05;;;;;;;45;27.4;;;;;;;-7.45;77.35254;98441.58;;;;
2021/02/11 03:18:02;;;;;;;49.4;31.3;;;;;;;-7.58;76.83203;98442.34;;;;
2021/02/11 03:27:59;;;;;;;53.1;29.9;;;;;;;-7.69;76.69238;98461.2;;;;
2021/02/11 03:37:56;;;;;;;49.9;26.8;;;;;;;-7.69;78.08594;98469.05;;;;
2021/02/11 03:47:52;;;;;;;46.4;29.6;;;;;;;-7.64;78.53906;98484.99;;;;
2021/02/11 03:57:49;;;;;;;60.6;34.4;;;;;;;-7.65;79.84375;98485.98;;;;
2021/02/11 04:07:46;;;;;;;54.5;33.8;;;;;;;-7.84;81.70508;98502.36;;;;
2021/02/11 04:17:43;;;;;;;66.2;32.8;;;;;;;-7.95;82.51465;98513.38;;;;
2021/02/11 04:27:40;;;;;;;70.9;36.5;;;;;;;-8.09;83.38086;98527.36;;;;
2021/02/11 04:37:36;;;;;;;64.3;37.6;;;;;;;-8.08;83.41699;98521.92;;;;
2021/02/11 04:47:42;;;;;;;56.3;35.4;;;;;;;-8.05;83.44238;98531.22;;;;
2021/02/11 04:57:33;;;;;;;82.3;38.1;;;;;;;-8.02;83.21191;98541.29;;;;
2021/02/11 05:07:27;;;;;;;63.2;39.8;;;;;;;-8.11;84.15332;98545.84;;;;
2021/02/11 05:17:23;;;;;;;72.4;36.3;;;;;;;-8.19;84.0293;98556.45;;;;
2021/02/11 05:27:20;;;;;;;61.4;38;;;;;;;-8.23;84.13184;98561.25;;;;
2021/02/11 05:37:17;;;;;;;49.5;30.3;;;;;;;-8.33;83.37793;98576.45;;;;
2021/02/11 05:47:14;;;;;;;51.3;30.7;;;;;;;-8.32;83.23926;98588.52;;;;
2021/02/11 05:57:11;;;;;;;46.2;27;;;;;;;-8.29;82.42676;98613.47;;;;
2021/02/11 06:07:07;;;;;;;41;28.7;;;;;;;-8.17;81.76172;98604.92;;;;
2021/02/11 06:17:04;;;;;;;56.2;34.6;;;;;;;-8.24;81.20801;98630.2;;;;
2021/02/11 06:27:01;;;;;;;47.1;24.9;;;;;;;-8.28;80.24219;98636.78;;;;
2021/02/11 06:36:58;;;;;;;38.2;24.4;;;;;;;-8.39;79.7998;98663.44;;;;
2021/02/11 06:46:54;;;;;;;36.7;21.2;;;;;;;-8;79.33301;98654.33;;;;
2021/02/11 06:56:51;;;;;;;30.8;19;;;;;;;-7.8;78.71387;98678.84;;;;
2021/02/11 07:06:48;;;;;;;34.2;19.9;;;;;;;-7.8;78.3252;98687.5;;;;
2021/02/11 07:16:45;;;;;;;41.3;23.3;;;;;;;-7.62;77.14844;98686.23;;;;
2021/02/11 07:26:43;;;;;;;45.5;24.6;;;;;;;-7.95;76.67676;98704.28;;;;
2021/02/11 07:36:38;;;;;;;35.1;18.5;;;;;;;-7.67;75.86426;98715.61;;;;
2021/02/11 07:46:35;;;;;;;25;13.7;;;;;;;-7.82;73.77246;98747.06;;;;
2021/02/11 07:56:32;;;;;;;20.9;11.6;;;;;;;-7.71;72.62305;98756.22;;;;
2021/02/11 08:06:33;;;;;;;20.4;12.2;;;;;;;-7.58;71.31348;98758.13;;;;
2021/02/11 08:16:26;;;;;;;22.9;10.2;;;;;;;-7.74;71.125;98767.84;;;;
2021/02/11 08:26:23;;;;;;;32.7;12.8;;;;;;;-7.29;70.28027;98758.78;;;;
2021/02/11 08:36:20;;;;;;;15.1;9.7;;;;;;;-7.04;67.4248;98766.21;;;;
2021/02/11 08:46:16;;;;;;;21.7;14.5;;;;;;;-6.31;65.66113;98769.06;;;;
2021/02/11 08:56:16;;;;;;;17.1;9.8;;;;;;;-6.42;63.33789;98780.09;;;;
2021/02/11 09:06:10;;;;;;;21.6;14.5;;;;;;;-6.04;63.50391;98780.48;;;;
2021/02/11 09:16:07;;;;;;;24.2;15.2;;;;;;;-5.99;63.05273;98782.5;;;;
2021/02/11 09:26:05;;;;;;;22.5;13.3;;;;;;;-5.98;62.64063;98784.13;;;;
2021/02/11 09:36:02;;;;;;;32.9;16.5;;;;;;;-6.81;64.00684;98795.61;;;;
2021/02/11 09:45:59;;;;;;;19.7;13.6;;;;;;;-6.67;64.72363;98794.7;;;;
2021/02/11 09:55:56;;;;;;;26.6;15.8;;;;;;;-6.57;65.3916;98786.48;;;;
2021/02/11 10:05:53;;;;;;;18.4;10.2;;;;;;;-6.05;61.41016;98776.23;;;;
2021/02/11 10:15:51;;;;;;;18.2;12.6;;;;;;;-6.27;60.9541;98762.42;;;;
2021/02/11 10:25:47;;;;;;;25.9;16.6;;;;;;;-6.72;63.12793;98776.11;;;;
2021/02/11 10:35:44;;;;;;;26.1;16.2;;;;;;;-6.82;65.22168;98780.88;;;;
2021/02/11 10:45:41;;;;;;;23.6;15.7;;;;;;;-6.7;64.91504;98776.74;;;;
2021/02/11 10:55:38;;;;;;;43.1;20;;;;;;;-5.98;64.60156;98773.63;;;;
2021/02/11 11:05:35;;;;;;;23.2;17;;;;;;;-6.14;63.95703;98780.83;;;;
2021/02/11 11:15:34;;;;;;;25.6;16.4;;;;;;;-5.85;59.84668;98795.44;;;;
2021/02/11 11:25:29;;;;;;;26;14.1;;;;;;;-5.96;59.77734;98803.09;;;;
2021/02/11 11:35:28;;;;;;;20;14.1;;;;;;;-6.02;61.94824;98819.63;;;;
2021/02/11 11:45:23;;;;;;;19;12.9;;;;;;;-5.32;58.43652;98827.06;;;;
2021/02/11 11:55:20;;;;;;;23.6;14.2;;;;;;;-5.94;59.07031;98853.57;;;;
2021/02/11 12:05:17;;;;;;;21.1;15.7;;;;;;;-6.46;61.27441;98856.72;;;;
2021/02/11 12:15:14;;;;;;;20.1;11.9;;;;;;;-5.9;58.97754;98875.8;;;;
2021/02/11 12:25:11;;;;;;;21.1;13.8;;;;;;;-6.48;60.47656;98872.63;;;;
2021/02/11 12:35:09;;;;;;;26.8;13.6;;;;;;;-6.52;61.24316;98881.06;;;;
2021/02/11 12:45:05;;;;;;;17.1;13.3;;;;;;;-6.44;61.46191;98894.03;;;;
2021/02/11 12:55:02;;;;;;;19.5;11;;;;;;;-6.1;61.10938;98901.91;;;;
2021/02/11 13:04:59;;;;;;;17.2;9.7;;;;;;;-6.26;59.99707;98910.91;;;;
2021/02/11 13:14:56;;;;;;;17.8;12.5;;;;;;;-6.33;61.82715;98920.55;;;;
2021/02/11 13:24:53;;;;;;;21.5;13.6;;;;;;;-6.67;63.00684;98937.03;;;;
2021/02/11 13:34:50;;;;;;;11.7;7.7;;;;;;;-6.95;65.78906;98970.22;;;;
2021/02/11 13:44:47;;;;;;;13.9;9.9;;;;;;;-6.91;64.66602;98994.23;;;;
2021/02/11 13:54:51;;;;;;;19.2;9.1;;;;;;;-6.99;62.1748;99007.44;;;;
2021/02/11 14:04:50;;;;;;;14.4;7.5;;;;;;;-6.71;61.20508;99018.82;;;;
2021/02/11 14:14:41;;;;;;;11.9;9.3;;;;;;;-6.74;61.09082;99034.92;;;;
2021/02/11 14:24:40;;;;;;;13.7;7.2;;;;;;;-6.77;60.36816;99030.05;;;;
2021/02/11 14:34:42;;;;;;;17.4;9.8;;;;;;;-7.04;60.93945;99049.07;;;;
2021/02/11 14:44:28;;;;;;;13.2;8.1;;;;;;;-7.37;61.04297;99075.67;;;;
2021/02/11 14:54:25;;;;;;;15.4;8.7;;;;;;;-7.91;62.7002;99079.52;;;;
2021/02/11 15:04:22;;;;;;;12.1;7.3;;;;;;;-8.3;63.91992;99095.39;;;;
2021/02/11 15:14:18;;;;;;;15.1;5.9;;;;;;;-8.8;65.13086;99106.31;;;;
2021/02/11 15:24:15;;;;;;;13.8;7;;;;;;;-8.99;67.11133;99125.03;;;;
2021/02/11 15:34:12;;;;;;;13;7.3;;;;;;;-9.06;70.59863;99155.41;;;;
2021/02/11 15:44:09;;;;;;;18.3;10.2;;;;;;;-9.77;67.22363;99179.67;;;;
2021/02/11 15:54:05;;;;;;;14.9;9;;;;;;;-10.13;66.77539;99199.22;;;;
2021/02/11 16:04:02;;;;;;;10.8;7.8;;;;;;;-10.49;66.9668;99216.91;;;;
2021/02/11 16:13:58;;;;;;;10.3;5.1;;;;;;;-10.7;67.36426;99248.58;;;;
2021/02/11 16:23:55;;;;;;;8.8;5.4;;;;;;;-10.87;68.36914;99258.1;;;;
2021/02/11 16:33:51;;;;;;;16.6;6.3;;;;;;;-11.02;69.37402;99297.85;;;;
2021/02/11 16:43:48;;;;;;;14.2;6.8;;;;;;;-10.96;69.77246;99305.86;;;;
2021/02/11 16:53:44;;;;;;;13.8;7.6;;;;;;;-11.09;70.39453;99318.47;;;;
2021/02/11 17:03:41;;;;;;;20.7;14.4;;;;;;;-11.23;71.47559;99345.02;;;;
2021/02/11 17:13:37;;;;;;;15.6;9.5;;;;;;;-11.38;73.27441;99342.13;;;;
2021/02/11 17:23:33;;;;;;;15.6;8.6;;;;;;;-11.46;73.70996;99357.69;;;;
2021/02/11 17:33:30;;;;;;;23.2;10.7;;;;;;;-11.54;75.30273;99383.61;;;;
2021/02/11 17:43:26;;;;;;;25.2;14.3;;;;;;;-11.62;77.04395;99373.12;;;;
2021/02/11 17:53:22;;;;;;;22.1;13.4;;;;;;;-11.64;77.82227;99395.86;;;;
2021/02/11 18:03:19;;;;;;;23.9;9.3;;;;;;;-11.84;78.65918;99399.58;;;;
2021/02/11 18:13:15;;;;;;;13.5;9.7;;;;;;;-11.96;78.49805;99408.52;;;;
2021/02/11 18:23:11;;;;;;;21.6;10.9;;;;;;;-12.02;77.9209;99420.31;;;;
2021/02/11 18:33:07;;;;;;;12.9;9.2;;;;;;;-12.01;77.87988;99432.35;;;;
2021/02/11 18:43:04;;;;;;;17.4;8.4;;;;;;;-11.95;77.7959;99429.17;;;;
2021/02/11 18:53:00;;;;;;;20.1;10.7;;;;;;;-11.84;77.0332;99435.95;;;;
2021/02/11 19:02:56;;;;;;;20.8;10.4;;;;;;;-11.71;76.46973;99443.41;;;;
2021/02/11 19:12:53;;;;;;;27.3;14.5;;;;;;;-11.58;76.58008;99455.06;;;;
2021/02/11 19:22:50;;;;;;;27.7;15.2;;;;;;;-11.55;76.55273;99470.36;;;;
2021/02/11 19:32:45;;;;;;;21;12.5;;;;;;;-11.47;76.79297;99482.64;;;;
2021/02/11 19:42:42;;;;;;;29.6;13.2;;;;;;;-11.55;77.06641;99485.97;;;;
2021/02/11 19:52:38;;;;;;;22.8;11.1;;;;;;;-11.58;75.74512;99491.45;;;;
2021/02/11 20:02:35;;;;;;;24.6;12.7;;;;;;;-11.66;73.95215;99509.55;;;;
2021/02/11 20:12:33;;;;;;;17.4;8.5;;;;;;;-11.77;72.05859;99517.59;;;;
2021/02/11 20:22:27;;;;;;;18.2;8.3;;;;;;;-11.86;71.61328;99528.83;;;;
2021/02/11 20:32:24;;;;;;;28.3;11.6;;;;;;;-11.9;72.46387;99532.66;;;;
2021/02/11 20:42:20;;;;;;;23;10.6;;;;;;;-11.97;73.1582;99552.38;;;;
2021/02/11 20:52:16;;;;;;;20.1;11.6;;;;;;;-11.96;72.95605;99561.81;;;;
2021/02/11 21:02:13;;;;;;;20.6;8.2;;;;;;;-11.88;72.68066;99564.55;;;;
2021/02/11 21:12:09;;;;;;;29;11.9;;;;;;;-12.07;72.0166;99567.17;;;;
2021/02/11 21:22:06;;;;;;;20.6;13.5;;;;;;;-12.15;72.63379;99567.89;;;;
2021/02/11 21:32:02;;;;;;;29;13.1;;;;;;;-12.51;73.00977;99573.8;;;;
2021/02/11 21:41:58;;;;;;;25.8;10.3;;;;;;;-12.73;73.35547;99590.45;;;;
2021/02/11 21:51:55;;;;;;;23.4;12.6;;;;;;;-12.91;73.76172;99594.69;;;;
2021/02/11 22:01:51;;;;;;;16.8;10.9;;;;;;;-13.07;74.38379;99602.14;;;;
2021/02/11 22:11:47;;;;;;;25.3;12.6;;;;;;;-13.13;75.03418;99621.69;;;;
2021/02/11 22:21:43;;;;;;;34.9;19.8;;;;;;;-13.22;75.60645;99635.42;;;;
2021/02/11 22:31:40;;;;;;;39.4;21.9;;;;;;;-13.12;75.60156;99627.7;;;;
2021/02/11 22:41:36;;;;;;;27.1;13.7;;;;;;;-13.31;75.18457;99637.05;;;;
2021/02/11 22:51:33;;;;;;;25.1;13.7;;;;;;;-13.45;75.48926;99636.57;;;;
2021/02/11 23:01:28;;;;;;;44;20.2;;;;;;;-13.6;74.93945;99646.45;;;;
2021/02/11 23:11:24;;;;;;;28.5;14.2;;;;;;;-13.74;75.87402;99639.01;;;;
2021/02/11 23:21:20;;;;;;;31;14.7;;;;;;;-13.78;75.93848;99657.55;;;;
2021/02/11 23:31:16;;;;;;;34.3;15;;;;;;;-13.88;76.68652;99654.91;;;;
2021/02/11 23:41:13;;;;;;;27.8;17.4;;;;;;;-13.66;76.82422;99664.29;;;;
2021/02/11 23:51:09;;;;;;;37.4;18.8;;;;;;;-13.49;76.62109;99669.7;;;;
